sensor_id;sensor_type;location;lat;lon;timestamp;P1;durP1;ratioP1;P2;durP2;ratioP2
41309;SDS011;27057;51.438;-0.010;2023-06-24T00:02:25;11.05;;;4.93;;
41309;SDS011;27057;51.438;-0.010;2023-06-24T00:04:53;9.85;;;5.10;;
41309;SDS011;27057;51.438;-0.010;2023-06-24T00:07:20;9.60;;;5.53;;
41309;SDS011;27057;51.438;-0.010;2023-06-24T00:09:49;9.00;;;5.57;;
41309;SDS011;27057;51.438;-0.010;2023-06-24T00:12:17;13.55;;;5.32;;
41309;SDS011;27057;51.438;-0.010;2023-06-24T00:14:49;10.50;;;5.38;;
41309;SDS011;27057;51.438;-0.010;2023-06-24T00:17:17;11.82;;;5.90;;
41309;SDS011;27057;51.438;-0.010;2023-06-24T00:19:45;12.18;;;6.43;;
41309;SDS011;27057;51.438;-0.010;2023-06-24T00:22:12;16.23;;;5.32;;
41309;SDS011;27057;51.438;-0.010;2023-06-24T00:24:42;10.40;;;5.57;;
41309;SDS011;27057;51.438;-0.010;2023-06-24T00:27:10;13.13;;;5.78;;
41309;SDS011;27057;51.438;-0.010;2023-06-24T00:29:37;9.82;;;5.70;;
41309;SDS011;27057;51.438;-0.010;2023-06-24T00:32:05;8.75;;;5.90;;
41309;SDS011;27057;51.438;-0.010;2023-06-24T00:34:33;10.85;;;6.10;;
41309;SDS011;27057;51.438;-0.010;2023-06-24T00:37:01;9.80;;;5.43;;
41309;SDS011;27057;51.438;-0.010;2023-06-24T00:39:30;11.68;;;5.65;;
41309;SDS011;27057;51.438;-0.010;2023-06-24T00:41:58;9.55;;;5.78;;
41309;SDS011;27057;51.438;-0.010;2023-06-24T00:44:26;17.23;;;6.05;;
41309;SDS011;27057;51.438;-0.010;2023-06-24T00:46:54;12.20;;;5.32;;
41309;SDS011;27057;51.438;-0.010;2023-06-24T00:49:21;12.75;;;6.32;;
41309;SDS011;27057;51.438;-0.010;2023-06-24T00:51:49;13.05;;;6.63;;
41309;SDS011;27057;51.438;-0.010;2023-06-24T00:54:17;10.95;;;6.60;;
41309;SDS011;27057;51.438;-0.010;2023-06-24T00:56:45;10.48;;;6.20;;
41309;SDS011;27057;51.438;-0.010;2023-06-24T00:59:15;18.98;;;5.70;;
41309;SDS011;27057;51.438;-0.010;2023-06-24T01:01:43;8.82;;;5.03;;
41309;SDS011;27057;51.438;-0.010;2023-06-24T01:04:13;12.55;;;5.50;;
41309;SDS011;27057;51.438;-0.010;2023-06-24T01:06:40;12.77;;;6.55;;
41309;SDS011;27057;51.438;-0.010;2023-06-24T01:09:11;10.93;;;5.43;;
41309;SDS011;27057;51.438;-0.010;2023-06-24T01:11:39;11.25;;;5.93;;
41309;SDS011;27057;51.438;-0.010;2023-06-24T01:14:07;13.02;;;6.05;;
41309;SDS011;27057;51.438;-0.010;2023-06-24T01:16:42;12.63;;;6.72;;
41309;SDS011;27057;51.438;-0.010;2023-06-24T01:22:19;12.75;;;5.88;;
41309;SDS011;27057;51.438;-0.010;2023-06-24T01:25:00;10.60;;;5.78;;
41309;SDS011;27057;51.438;-0.010;2023-06-24T01:27:37;12.07;;;5.90;;
41309;SDS011;27057;51.438;-0.010;2023-06-24T01:32:54;10.73;;;6.50;;
41309;SDS011;27057;51.438;-0.010;2023-06-24T01:35:28;13.38;;;6.55;;
41309;SDS011;27057;51.438;-0.010;2023-06-24T01:37:59;9.27;;;5.82;;
41309;SDS011;27057;51.438;-0.010;2023-06-24T01:40:34;14.27;;;5.88;;
41309;SDS011;27057;51.438;-0.010;2023-06-24T01:43:09;8.98;;;5.78;;
41309;SDS011;27057;51.438;-0.010;2023-06-24T01:45:40;11.63;;;6.60;;
41309;SDS011;27057;51.438;-0.010;2023-06-24T01:48:16;17.45;;;5.90;;
41309;SDS011;27057;51.438;-0.010;2023-06-24T01:51:09;21.73;;;6.57;;
41309;SDS011;27057;51.438;-0.010;2023-06-24T01:53:42;9.02;;;5.88;;
41309;SDS011;27057;51.438;-0.010;2023-06-24T01:56:15;11.18;;;5.97;;
41309;SDS011;27057;51.438;-0.010;2023-06-24T01:58:44;9.13;;;5.63;;
41309;SDS011;27057;51.438;-0.010;2023-06-24T02:01:14;11.40;;;5.75;;
41309;SDS011;27057;51.438;-0.010;2023-06-24T02:03:42;11.73;;;6.07;;
41309;SDS011;27057;51.438;-0.010;2023-06-24T02:06:10;11.50;;;6.30;;
41309;SDS011;27057;51.438;-0.010;2023-06-24T02:08:39;15.40;;;7.03;;
41309;SDS011;27057;51.438;-0.010;2023-06-24T02:11:08;9.70;;;5.63;;
41309;SDS011;27057;51.438;-0.010;2023-06-24T02:13:38;9.43;;;6.50;;
41309;SDS011;27057;51.438;-0.010;2023-06-24T02:16:12;14.35;;;5.80;;
41309;SDS011;27057;51.438;-0.010;2023-06-24T02:18:40;11.38;;;6.85;;
41309;SDS011;27057;51.438;-0.010;2023-06-24T02:21:10;9.95;;;6.07;;
41309;SDS011;27057;51.438;-0.010;2023-06-24T02:23:38;12.10;;;6.65;;
41309;SDS011;27057;51.438;-0.010;2023-06-24T02:26:06;10.88;;;6.38;;
41309;SDS011;27057;51.438;-0.010;2023-06-24T02:28:34;13.48;;;7.00;;
41309;SDS011;27057;51.438;-0.010;2023-06-24T02:31:02;10.20;;;6.03;;
41309;SDS011;27057;51.438;-0.010;2023-06-24T02:33:31;16.27;;;8.25;;
41309;SDS011;27057;51.438;-0.010;2023-06-24T02:35:58;12.52;;;6.97;;
41309;SDS011;27057;51.438;-0.010;2023-06-24T02:38:26;14.32;;;6.97;;
41309;SDS011;27057;51.438;-0.010;2023-06-24T02:40:54;13.35;;;7.03;;
41309;SDS011;27057;51.438;-0.010;2023-06-24T02:43:23;13.73;;;7.30;;
41309;SDS011;27057;51.438;-0.010;2023-06-24T02:45:51;12.68;;;6.88;;
41309;SDS011;27057;51.438;-0.010;2023-06-24T02:48:20;10.80;;;6.70;;
41309;SDS011;27057;51.438;-0.010;2023-06-24T02:50:48;13.73;;;7.05;;
41309;SDS011;27057;51.438;-0.010;2023-06-24T02:53:16;25.60;;;7.85;;
41309;SDS011;27057;51.438;-0.010;2023-06-24T02:55:48;15.13;;;7.47;;
41309;SDS011;27057;51.438;-0.010;2023-06-24T02:58:17;9.30;;;7.22;;
41309;SDS011;27057;51.438;-0.010;2023-06-24T03:00:59;12.73;;;7.18;;
41309;SDS011;27057;51.438;-0.010;2023-06-24T03:03:44;13.88;;;7.13;;
41309;SDS011;27057;51.438;-0.010;2023-06-24T03:06:17;10.43;;;6.93;;
41309;SDS011;27057;51.438;-0.010;2023-06-24T03:08:45;21.20;;;7.85;;
41309;SDS011;27057;51.438;-0.010;2023-06-24T03:11:14;13.70;;;7.60;;
41309;SDS011;27057;51.438;-0.010;2023-06-24T03:13:43;14.63;;;8.73;;
41309;SDS011;27057;51.438;-0.010;2023-06-24T03:16:17;15.35;;;9.35;;
41309;SDS011;27057;51.438;-0.010;2023-06-24T03:19:05;19.23;;;7.90;;
41309;SDS011;27057;51.438;-0.010;2023-06-24T03:21:34;16.60;;;8.25;;
41309;SDS011;27057;51.438;-0.010;2023-06-24T03:24:07;12.77;;;7.78;;
41309;SDS011;27057;51.438;-0.010;2023-06-24T03:26:37;20.05;;;8.88;;
41309;SDS011;27057;51.438;-0.010;2023-06-24T03:29:08;15.30;;;8.15;;
41309;SDS011;27057;51.438;-0.010;2023-06-24T03:31:41;12.75;;;7.75;;
41309;SDS011;27057;51.438;-0.010;2023-06-24T03:34:13;15.52;;;7.90;;
41309;SDS011;27057;51.438;-0.010;2023-06-24T03:36:40;15.45;;;8.90;;
41309;SDS011;27057;51.438;-0.010;2023-06-24T03:39:08;19.85;;;8.93;;
41309;SDS011;27057;51.438;-0.010;2023-06-24T03:41:35;16.17;;;7.80;;
41309;SDS011;27057;51.438;-0.010;2023-06-24T03:44:03;16.83;;;8.73;;
41309;SDS011;27057;51.438;-0.010;2023-06-24T03:46:32;16.23;;;8.43;;
41309;SDS011;27057;51.438;-0.010;2023-06-24T03:49:00;13.25;;;7.78;;
41309;SDS011;27057;51.438;-0.010;2023-06-24T03:51:29;17.05;;;8.38;;
41309;SDS011;27057;51.438;-0.010;2023-06-24T03:53:57;11.15;;;7.63;;
41309;SDS011;27057;51.438;-0.010;2023-06-24T03:56:26;15.82;;;8.52;;
41309;SDS011;27057;51.438;-0.010;2023-06-24T03:58:54;15.05;;;9.10;;
41309;SDS011;27057;51.438;-0.010;2023-06-24T04:01:23;14.40;;;8.85;;
41309;SDS011;27057;51.438;-0.010;2023-06-24T04:03:51;19.38;;;9.15;;
41309;SDS011;27057;51.438;-0.010;2023-06-24T04:06:18;19.40;;;9.60;;
41309;SDS011;27057;51.438;-0.010;2023-06-24T04:08:45;16.90;;;9.25;;
41309;SDS011;27057;51.438;-0.010;2023-06-24T04:11:15;17.17;;;10.25;;
41309;SDS011;27057;51.438;-0.010;2023-06-24T04:13:43;22.25;;;11.05;;
41309;SDS011;27057;51.438;-0.010;2023-06-24T04:16:13;26.08;;;11.98;;
41309;SDS011;27057;51.438;-0.010;2023-06-24T04:18:40;22.60;;;12.57;;
41309;SDS011;27057;51.438;-0.010;2023-06-24T04:21:07;18.00;;;9.57;;
41309;SDS011;27057;51.438;-0.010;2023-06-24T04:23:35;22.02;;;9.77;;
41309;SDS011;27057;51.438;-0.010;2023-06-24T04:26:02;17.73;;;10.77;;
41309;SDS011;27057;51.438;-0.010;2023-06-24T04:28:30;20.10;;;10.75;;
41309;SDS011;27057;51.438;-0.010;2023-06-24T04:30:57;22.10;;;11.68;;
41309;SDS011;27057;51.438;-0.010;2023-06-24T04:33:25;25.42;;;11.18;;
41309;SDS011;27057;51.438;-0.010;2023-06-24T04:35:53;19.05;;;11.27;;
41309;SDS011;27057;51.438;-0.010;2023-06-24T04:38:24;21.17;;;12.38;;
41309;SDS011;27057;51.438;-0.010;2023-06-24T04:40:52;19.90;;;12.63;;
41309;SDS011;27057;51.438;-0.010;2023-06-24T04:43:19;24.15;;;12.65;;
41309;SDS011;27057;51.438;-0.010;2023-06-24T04:45:47;25.55;;;14.18;;
41309;SDS011;27057;51.438;-0.010;2023-06-24T04:48:14;25.88;;;13.90;;
41309;SDS011;27057;51.438;-0.010;2023-06-24T04:50:41;21.38;;;12.93;;
41309;SDS011;27057;51.438;-0.010;2023-06-24T04:53:09;23.55;;;13.15;;
41309;SDS011;27057;51.438;-0.010;2023-06-24T04:55:37;26.38;;;14.13;;
41309;SDS011;27057;51.438;-0.010;2023-06-24T04:58:04;24.17;;;14.30;;
41309;SDS011;27057;51.438;-0.010;2023-06-24T05:00:32;28.15;;;13.88;;
41309;SDS011;27057;51.438;-0.010;2023-06-24T05:02:59;24.92;;;14.13;;
41309;SDS011;27057;51.438;-0.010;2023-06-24T05:05:27;24.13;;;12.93;;
41309;SDS011;27057;51.438;-0.010;2023-06-24T05:07:55;26.42;;;14.00;;
41309;SDS011;27057;51.438;-0.010;2023-06-24T05:10:22;25.10;;;13.32;;
41309;SDS011;27057;51.438;-0.010;2023-06-24T05:12:49;23.30;;;12.88;;
41309;SDS011;27057;51.438;-0.010;2023-06-24T05:15:17;26.90;;;13.85;;
41309;SDS011;27057;51.438;-0.010;2023-06-24T05:17:44;23.25;;;12.50;;
41309;SDS011;27057;51.438;-0.010;2023-06-24T05:20:12;24.55;;;13.48;;
41309;SDS011;27057;51.438;-0.010;2023-06-24T05:22:39;21.20;;;12.60;;
41309;SDS011;27057;51.438;-0.010;2023-06-24T05:25:07;30.88;;;12.40;;
41309;SDS011;27057;51.438;-0.010;2023-06-24T05:27:34;24.65;;;12.57;;
41309;SDS011;27057;51.438;-0.010;2023-06-24T05:30:02;24.50;;;13.55;;
41309;SDS011;27057;51.438;-0.010;2023-06-24T05:32:30;25.15;;;11.90;;
41309;SDS011;27057;51.438;-0.010;2023-06-24T05:34:57;18.83;;;11.38;;
41309;SDS011;27057;51.438;-0.010;2023-06-24T05:37:24;20.80;;;11.73;;
41309;SDS011;27057;51.438;-0.010;2023-06-24T05:39:52;20.70;;;11.50;;
41309;SDS011;27057;51.438;-0.010;2023-06-24T05:42:19;16.88;;;10.57;;
41309;SDS011;27057;51.438;-0.010;2023-06-24T05:44:47;21.27;;;11.85;;
41309;SDS011;27057;51.438;-0.010;2023-06-24T05:47:14;22.52;;;11.07;;
41309;SDS011;27057;51.438;-0.010;2023-06-24T05:49:41;29.40;;;13.63;;
41309;SDS011;27057;51.438;-0.010;2023-06-24T05:52:09;18.20;;;10.30;;
41309;SDS011;27057;51.438;-0.010;2023-06-24T05:54:36;22.35;;;12.35;;
41309;SDS011;27057;51.438;-0.010;2023-06-24T05:57:03;22.08;;;10.23;;
41309;SDS011;27057;51.438;-0.010;2023-06-24T05:59:34;16.55;;;10.50;;
41309;SDS011;27057;51.438;-0.010;2023-06-24T06:02:01;22.35;;;10.52;;
41309;SDS011;27057;51.438;-0.010;2023-06-24T06:04:28;20.58;;;10.52;;
41309;SDS011;27057;51.438;-0.010;2023-06-24T06:06:56;17.10;;;10.27;;
41309;SDS011;27057;51.438;-0.010;2023-06-24T06:09:23;16.88;;;10.13;;
41309;SDS011;27057;51.438;-0.010;2023-06-24T06:11:51;15.15;;;9.90;;
41309;SDS011;27057;51.438;-0.010;2023-06-24T06:14:18;17.20;;;10.23;;
41309;SDS011;27057;51.438;-0.010;2023-06-24T06:16:46;16.92;;;8.98;;
41309;SDS011;27057;51.438;-0.010;2023-06-24T06:19:13;19.63;;;8.57;;
41309;SDS011;27057;51.438;-0.010;2023-06-24T06:21:40;21.58;;;8.88;;
41309;SDS011;27057;51.438;-0.010;2023-06-24T06:24:08;13.90;;;8.60;;
41309;SDS011;27057;51.438;-0.010;2023-06-24T06:26:40;12.95;;;8.48;;
41309;SDS011;27057;51.438;-0.010;2023-06-24T06:29:11;13.55;;;8.40;;
41309;SDS011;27057;51.438;-0.010;2023-06-24T06:31:39;16.08;;;8.48;;
41309;SDS011;27057;51.438;-0.010;2023-06-24T06:34:06;13.35;;;7.72;;
41309;SDS011;27057;51.438;-0.010;2023-06-24T06:36:35;17.48;;;8.00;;
41309;SDS011;27057;51.438;-0.010;2023-06-24T06:39:03;15.23;;;7.93;;
41309;SDS011;27057;51.438;-0.010;2023-06-24T06:41:30;15.77;;;7.20;;
41309;SDS011;27057;51.438;-0.010;2023-06-24T06:43:58;14.43;;;7.20;;
41309;SDS011;27057;51.438;-0.010;2023-06-24T06:46:25;12.57;;;7.03;;
41309;SDS011;27057;51.438;-0.010;2023-06-24T06:48:53;9.85;;;5.32;;
41309;SDS011;27057;51.438;-0.010;2023-06-24T06:51:20;11.63;;;6.13;;
41309;SDS011;27057;51.438;-0.010;2023-06-24T06:53:47;11.27;;;6.03;;
41309;SDS011;27057;51.438;-0.010;2023-06-24T06:56:18;9.73;;;6.22;;
41309;SDS011;27057;51.438;-0.010;2023-06-24T06:58:49;16.55;;;6.88;;
41309;SDS011;27057;51.438;-0.010;2023-06-24T07:01:17;21.52;;;9.35;;
41309;SDS011;27057;51.438;-0.010;2023-06-24T07:03:45;15.70;;;6.75;;
41309;SDS011;27057;51.438;-0.010;2023-06-24T07:06:13;13.02;;;7.38;;
41309;SDS011;27057;51.438;-0.010;2023-06-24T07:08:40;11.05;;;7.10;;
41309;SDS011;27057;51.438;-0.010;2023-06-24T07:11:07;21.90;;;8.00;;
41309;SDS011;27057;51.438;-0.010;2023-06-24T07:13:35;27.70;;;10.02;;
41309;SDS011;27057;51.438;-0.010;2023-06-24T07:16:02;15.52;;;7.20;;
41309;SDS011;27057;51.438;-0.010;2023-06-24T07:18:30;11.55;;;6.63;;
41309;SDS011;27057;51.438;-0.010;2023-06-24T07:20:59;12.82;;;6.57;;
41309;SDS011;27057;51.438;-0.010;2023-06-24T07:23:26;24.63;;;8.40;;
41309;SDS011;27057;51.438;-0.010;2023-06-24T07:25:54;15.50;;;5.82;;
41309;SDS011;27057;51.438;-0.010;2023-06-24T07:28:21;15.50;;;6.55;;
41309;SDS011;27057;51.438;-0.010;2023-06-24T07:30:48;15.80;;;7.28;;
41309;SDS011;27057;51.438;-0.010;2023-06-24T07:33:16;12.90;;;5.90;;
41309;SDS011;27057;51.438;-0.010;2023-06-24T07:35:43;16.88;;;8.57;;
41309;SDS011;27057;51.438;-0.010;2023-06-24T07:38:10;9.95;;;6.40;;
41309;SDS011;27057;51.438;-0.010;2023-06-24T07:40:39;17.23;;;7.03;;
41309;SDS011;27057;51.438;-0.010;2023-06-24T07:43:06;10.45;;;6.03;;
41309;SDS011;27057;51.438;-0.010;2023-06-24T07:45:34;10.40;;;6.25;;
41309;SDS011;27057;51.438;-0.010;2023-06-24T07:48:01;14.50;;;6.95;;
41309;SDS011;27057;51.438;-0.010;2023-06-24T07:50:29;16.42;;;6.65;;
41309;SDS011;27057;51.438;-0.010;2023-06-24T07:52:58;8.75;;;6.05;;
41309;SDS011;27057;51.438;-0.010;2023-06-24T07:55:25;12.13;;;6.10;;
41309;SDS011;27057;51.438;-0.010;2023-06-24T07:57:52;11.45;;;7.25;;
41309;SDS011;27057;51.438;-0.010;2023-06-24T08:00:20;11.50;;;5.80;;
41309;SDS011;27057;51.438;-0.010;2023-06-24T08:02:47;9.90;;;6.05;;
41309;SDS011;27057;51.438;-0.010;2023-06-24T08:05:15;12.57;;;7.32;;
41309;SDS011;27057;51.438;-0.010;2023-06-24T08:07:45;10.55;;;6.57;;
41309;SDS011;27057;51.438;-0.010;2023-06-24T08:10:12;22.42;;;6.40;;
41309;SDS011;27057;51.438;-0.010;2023-06-24T08:12:40;13.18;;;6.57;;
41309;SDS011;27057;51.438;-0.010;2023-06-24T08:15:07;19.58;;;6.32;;
41309;SDS011;27057;51.438;-0.010;2023-06-24T08:17:35;13.43;;;6.72;;
41309;SDS011;27057;51.438;-0.010;2023-06-24T08:20:03;11.52;;;5.90;;
41309;SDS011;27057;51.438;-0.010;2023-06-24T08:22:31;13.45;;;7.35;;
41309;SDS011;27057;51.438;-0.010;2023-06-24T08:24:58;14.02;;;6.15;;
41309;SDS011;27057;51.438;-0.010;2023-06-24T08:27:25;14.68;;;6.05;;
41309;SDS011;27057;51.438;-0.010;2023-06-24T08:29:53;13.07;;;6.80;;
41309;SDS011;27057;51.438;-0.010;2023-06-24T08:32:20;8.93;;;5.90;;
41309;SDS011;27057;51.438;-0.010;2023-06-24T08:34:48;13.27;;;6.10;;
41309;SDS011;27057;51.438;-0.010;2023-06-24T08:37:15;10.63;;;5.72;;
41309;SDS011;27057;51.438;-0.010;2023-06-24T08:39:42;14.63;;;5.75;;
41309;SDS011;27057;51.438;-0.010;2023-06-24T08:42:10;10.75;;;6.47;;
41309;SDS011;27057;51.438;-0.010;2023-06-24T08:44:37;9.57;;;5.93;;
41309;SDS011;27057;51.438;-0.010;2023-06-24T08:47:04;10.68;;;6.13;;
41309;SDS011;27057;51.438;-0.010;2023-06-24T08:49:32;13.00;;;6.30;;
41309;SDS011;27057;51.438;-0.010;2023-06-24T08:52:08;8.73;;;5.60;;
41309;SDS011;27057;51.438;-0.010;2023-06-24T08:54:40;9.90;;;5.88;;
41309;SDS011;27057;51.438;-0.010;2023-06-24T08:57:08;13.40;;;5.97;;
41309;SDS011;27057;51.438;-0.010;2023-06-24T08:59:41;13.25;;;5.70;;
41309;SDS011;27057;51.438;-0.010;2023-06-24T09:02:09;9.50;;;5.28;;
41309;SDS011;27057;51.438;-0.010;2023-06-24T09:04:38;9.05;;;5.13;;
41309;SDS011;27057;51.438;-0.010;2023-06-24T09:07:05;17.25;;;6.47;;
41309;SDS011;27057;51.438;-0.010;2023-06-24T09:09:41;11.48;;;4.80;;
41309;SDS011;27057;51.438;-0.010;2023-06-24T09:12:13;6.80;;;4.13;;
41309;SDS011;27057;51.438;-0.010;2023-06-24T09:14:42;8.80;;;4.70;;
41309;SDS011;27057;51.438;-0.010;2023-06-24T09:17:16;11.90;;;4.72;;
41309;SDS011;27057;51.438;-0.010;2023-06-24T09:19:44;12.20;;;4.93;;
41309;SDS011;27057;51.438;-0.010;2023-06-24T09:22:11;8.15;;;5.63;;
41309;SDS011;27057;51.438;-0.010;2023-06-24T09:24:43;10.82;;;5.07;;
41309;SDS011;27057;51.438;-0.010;2023-06-24T09:27:16;18.42;;;5.45;;
41309;SDS011;27057;51.438;-0.010;2023-06-24T09:29:46;10.25;;;5.28;;
41309;SDS011;27057;51.438;-0.010;2023-06-24T09:32:14;11.77;;;4.80;;
41309;SDS011;27057;51.438;-0.010;2023-06-24T09:34:43;11.68;;;4.82;;
41309;SDS011;27057;51.438;-0.010;2023-06-24T09:37:10;7.53;;;4.10;;
41309;SDS011;27057;51.438;-0.010;2023-06-24T09:39:47;10.65;;;4.63;;
41309;SDS011;27057;51.438;-0.010;2023-06-24T09:42:15;15.40;;;4.65;;
41309;SDS011;27057;51.438;-0.010;2023-06-24T09:44:52;7.22;;;4.13;;
41309;SDS011;27057;51.438;-0.010;2023-06-24T09:47:20;10.20;;;4.20;;
41309;SDS011;27057;51.438;-0.010;2023-06-24T09:49:52;10.35;;;4.85;;
41309;SDS011;27057;51.438;-0.010;2023-06-24T09:52:20;4.45;;;3.38;;
41309;SDS011;27057;51.438;-0.010;2023-06-24T09:54:50;7.40;;;3.90;;
41309;SDS011;27057;51.438;-0.010;2023-06-24T09:57:22;6.07;;;3.08;;
41309;SDS011;27057;51.438;-0.010;2023-06-24T09:59:55;7.13;;;3.58;;
41309;SDS011;27057;51.438;-0.010;2023-06-24T10:02:22;5.57;;;3.53;;
41309;SDS011;27057;51.438;-0.010;2023-06-24T10:04:51;9.23;;;3.40;;
41309;SDS011;27057;51.438;-0.010;2023-06-24T10:07:19;7.03;;;3.13;;
41309;SDS011;27057;51.438;-0.010;2023-06-24T10:09:47;4.53;;;3.33;;
41309;SDS011;27057;51.438;-0.010;2023-06-24T10:12:15;7.32;;;3.55;;
41309;SDS011;27057;51.438;-0.010;2023-06-24T10:14:43;10.48;;;3.33;;
41309;SDS011;27057;51.438;-0.010;2023-06-24T10:17:11;3.85;;;2.85;;
41309;SDS011;27057;51.438;-0.010;2023-06-24T10:19:39;4.68;;;2.80;;
41309;SDS011;27057;51.438;-0.010;2023-06-24T10:22:08;5.97;;;2.72;;
41309;SDS011;27057;51.438;-0.010;2023-06-24T10:24:38;5.45;;;2.30;;
41309;SDS011;27057;51.438;-0.010;2023-06-24T10:27:21;3.42;;;2.38;;
41309;SDS011;27057;51.438;-0.010;2023-06-24T10:29:49;3.60;;;2.42;;
41309;SDS011;27057;51.438;-0.010;2023-06-24T10:32:18;6.63;;;3.05;;
41309;SDS011;27057;51.438;-0.010;2023-06-24T10:34:54;6.03;;;2.72;;
41309;SDS011;27057;51.438;-0.010;2023-06-24T10:37:24;3.88;;;2.03;;
41309;SDS011;27057;51.438;-0.010;2023-06-24T10:39:53;4.57;;;2.35;;
41309;SDS011;27057;51.438;-0.010;2023-06-24T10:42:25;4.82;;;2.30;;
41309;SDS011;27057;51.438;-0.010;2023-06-24T10:44:54;3.45;;;2.25;;
41309;SDS011;27057;51.438;-0.010;2023-06-24T10:47:24;2.22;;;1.60;;
41309;SDS011;27057;51.438;-0.010;2023-06-24T10:49:52;5.55;;;1.67;;
41309;SDS011;27057;51.438;-0.010;2023-06-24T10:52:20;2.58;;;1.60;;
41309;SDS011;27057;51.438;-0.010;2023-06-24T10:54:50;4.50;;;2.58;;
41309;SDS011;27057;51.438;-0.010;2023-06-24T10:57:23;1.70;;;1.60;;
41309;SDS011;27057;51.438;-0.010;2023-06-24T10:59:54;3.20;;;1.98;;
41309;SDS011;27057;51.438;-0.010;2023-06-24T11:02:23;2.63;;;1.67;;
41309;SDS011;27057;51.438;-0.010;2023-06-24T11:04:54;5.47;;;2.15;;
41309;SDS011;27057;51.438;-0.010;2023-06-24T11:07:23;4.45;;;1.98;;
41309;SDS011;27057;51.438;-0.010;2023-06-24T11:09:53;4.50;;;2.13;;
41309;SDS011;27057;51.438;-0.010;2023-06-24T11:12:29;3.22;;;2.22;;
41309;SDS011;27057;51.438;-0.010;2023-06-24T11:15:04;3.17;;;1.92;;
41309;SDS011;27057;51.438;-0.010;2023-06-24T11:17:33;2.95;;;1.67;;
41309;SDS011;27057;51.438;-0.010;2023-06-24T11:20:05;2.35;;;1.63;;
41309;SDS011;27057;51.438;-0.010;2023-06-24T11:22:34;5.47;;;1.70;;
41309;SDS011;27057;51.438;-0.010;2023-06-24T11:25:01;4.10;;;1.95;;
41309;SDS011;27057;51.438;-0.010;2023-06-24T11:27:30;3.63;;;1.98;;
41309;SDS011;27057;51.438;-0.010;2023-06-24T11:29:59;3.10;;;1.63;;
41309;SDS011;27057;51.438;-0.010;2023-06-24T11:32:36;3.67;;;2.03;;
41309;SDS011;27057;51.438;-0.010;2023-06-24T11:35:07;4.65;;;1.90;;
41309;SDS011;27057;51.438;-0.010;2023-06-24T11:37:36;4.38;;;1.92;;
41309;SDS011;27057;51.438;-0.010;2023-06-24T11:40:04;2.95;;;1.40;;
41309;SDS011;27057;51.438;-0.010;2023-06-24T11:42:38;7.70;;;3.30;;
41309;SDS011;27057;51.438;-0.010;2023-06-24T11:45:07;3.97;;;2.03;;
41309;SDS011;27057;51.438;-0.010;2023-06-24T11:47:40;6.18;;;2.33;;
41309;SDS011;27057;51.438;-0.010;2023-06-24T11:50:07;6.40;;;2.05;;
41309;SDS011;27057;51.438;-0.010;2023-06-24T11:55:16;4.78;;;2.17;;
41309;SDS011;27057;51.438;-0.010;2023-06-24T11:57:54;3.17;;;1.70;;
41309;SDS011;27057;51.438;-0.010;2023-06-24T12:00:32;4.18;;;1.77;;
41309;SDS011;27057;51.438;-0.010;2023-06-24T12:03:05;5.95;;;2.60;;
41309;SDS011;27057;51.438;-0.010;2023-06-24T12:05:37;6.93;;;2.35;;
41309;SDS011;27057;51.438;-0.010;2023-06-24T12:08:11;5.88;;;2.38;;
41309;SDS011;27057;51.438;-0.010;2023-06-24T12:10:40;3.78;;;2.47;;
41309;SDS011;27057;51.438;-0.010;2023-06-24T12:13:09;5.75;;;2.40;;
41309;SDS011;27057;51.438;-0.010;2023-06-24T12:15:37;6.65;;;2.00;;
41309;SDS011;27057;51.438;-0.010;2023-06-24T12:18:04;5.15;;;2.75;;
41309;SDS011;27057;51.438;-0.010;2023-06-24T12:20:32;4.75;;;2.53;;
41309;SDS011;27057;51.438;-0.010;2023-06-24T12:23:05;9.70;;;2.45;;
41309;SDS011;27057;51.438;-0.010;2023-06-24T12:25:32;4.28;;;2.17;;
41309;SDS011;27057;51.438;-0.010;2023-06-24T12:28:00;8.48;;;2.83;;
41309;SDS011;27057;51.438;-0.010;2023-06-24T12:30:27;3.97;;;2.35;;
41309;SDS011;27057;51.438;-0.010;2023-06-24T12:32:55;3.97;;;1.92;;
41309;SDS011;27057;51.438;-0.010;2023-06-24T12:35:23;5.57;;;2.25;;
41309;SDS011;27057;51.438;-0.010;2023-06-24T12:37:53;5.03;;;1.75;;
41309;SDS011;27057;51.438;-0.010;2023-06-24T12:40:21;5.07;;;2.08;;
41309;SDS011;27057;51.438;-0.010;2023-06-24T12:42:49;4.45;;;1.83;;
41309;SDS011;27057;51.438;-0.010;2023-06-24T12:45:16;4.63;;;2.45;;
41309;SDS011;27057;51.438;-0.010;2023-06-24T12:47:44;3.67;;;2.33;;
41309;SDS011;27057;51.438;-0.010;2023-06-24T12:50:11;2.90;;;2.22;;
41309;SDS011;27057;51.438;-0.010;2023-06-24T12:52:39;3.95;;;2.13;;
41309;SDS011;27057;51.438;-0.010;2023-06-24T12:55:07;6.25;;;2.17;;
41309;SDS011;27057;51.438;-0.010;2023-06-24T12:57:35;3.83;;;2.20;;
41309;SDS011;27057;51.438;-0.010;2023-06-24T13:00:03;7.72;;;3.78;;
41309;SDS011;27057;51.438;-0.010;2023-06-24T13:02:35;6.40;;;2.47;;
41309;SDS011;27057;51.438;-0.010;2023-06-24T13:05:03;4.60;;;2.22;;
41309;SDS011;27057;51.438;-0.010;2023-06-24T13:07:31;5.03;;;2.10;;
41309;SDS011;27057;51.438;-0.010;2023-06-24T13:09:59;5.32;;;2.22;;
41309;SDS011;27057;51.438;-0.010;2023-06-24T13:12:28;5.00;;;1.85;;
41309;SDS011;27057;51.438;-0.010;2023-06-24T13:14:55;4.30;;;2.13;;
41309;SDS011;27057;51.438;-0.010;2023-06-24T13:17:23;4.05;;;2.47;;
41309;SDS011;27057;51.438;-0.010;2023-06-24T13:19:51;4.50;;;1.95;;
41309;SDS011;27057;51.438;-0.010;2023-06-24T13:22:19;5.03;;;2.10;;
41309;SDS011;27057;51.438;-0.010;2023-06-24T13:24:46;6.43;;;2.47;;
41309;SDS011;27057;51.438;-0.010;2023-06-24T13:27:14;4.65;;;2.17;;
41309;SDS011;27057;51.438;-0.010;2023-06-24T13:29:43;8.88;;;3.55;;
41309;SDS011;27057;51.438;-0.010;2023-06-24T13:32:10;3.47;;;2.10;;
41309;SDS011;27057;51.438;-0.010;2023-06-24T13:34:38;3.47;;;1.58;;
41309;SDS011;27057;51.438;-0.010;2023-06-24T13:37:05;6.28;;;2.28;;
41309;SDS011;27057;51.438;-0.010;2023-06-24T13:39:33;6.00;;;2.53;;
41309;SDS011;27057;51.438;-0.010;2023-06-24T13:42:00;7.25;;;2.15;;
41309;SDS011;27057;51.438;-0.010;2023-06-24T13:44:27;5.25;;;2.30;;
41309;SDS011;27057;51.438;-0.010;2023-06-24T13:46:55;3.92;;;2.00;;
41309;SDS011;27057;51.438;-0.010;2023-06-24T13:49:22;5.50;;;2.58;;
41309;SDS011;27057;51.438;-0.010;2023-06-24T13:51:50;3.03;;;2.00;;
41309;SDS011;27057;51.438;-0.010;2023-06-24T13:54:17;5.20;;;2.53;;
41309;SDS011;27057;51.438;-0.010;2023-06-24T13:56:44;3.20;;;2.25;;
41309;SDS011;27057;51.438;-0.010;2023-06-24T13:59:12;3.33;;;2.10;;
41309;SDS011;27057;51.438;-0.010;2023-06-24T14:01:39;7.80;;;2.38;;
41309;SDS011;27057;51.438;-0.010;2023-06-24T14:04:07;3.25;;;2.30;;
41309;SDS011;27057;51.438;-0.010;2023-06-24T14:06:35;4.03;;;2.30;;
41309;SDS011;27057;51.438;-0.010;2023-06-24T14:09:02;5.65;;;2.75;;
41309;SDS011;27057;51.438;-0.010;2023-06-24T14:11:29;4.55;;;2.50;;
41309;SDS011;27057;51.438;-0.010;2023-06-24T14:13:57;4.63;;;2.63;;
41309;SDS011;27057;51.438;-0.010;2023-06-24T14:16:24;5.15;;;2.65;;
41309;SDS011;27057;51.438;-0.010;2023-06-24T14:18:52;3.92;;;2.33;;
41309;SDS011;27057;51.438;-0.010;2023-06-24T14:21:20;7.93;;;2.50;;
41309;SDS011;27057;51.438;-0.010;2023-06-24T14:23:47;4.97;;;2.53;;
41309;SDS011;27057;51.438;-0.010;2023-06-24T14:26:15;4.95;;;2.20;;
41309;SDS011;27057;51.438;-0.010;2023-06-24T14:28:43;5.50;;;2.42;;
41309;SDS011;27057;51.438;-0.010;2023-06-24T14:31:10;7.85;;;2.40;;
41309;SDS011;27057;51.438;-0.010;2023-06-24T14:33:38;7.13;;;2.60;;
41309;SDS011;27057;51.438;-0.010;2023-06-24T14:36:05;4.85;;;2.97;;
41309;SDS011;27057;51.438;-0.010;2023-06-24T14:38:33;3.88;;;2.90;;
41309;SDS011;27057;51.438;-0.010;2023-06-24T14:41:00;3.75;;;2.78;;
41309;SDS011;27057;51.438;-0.010;2023-06-24T14:43:27;5.88;;;2.60;;
41309;SDS011;27057;51.438;-0.010;2023-06-24T14:45:55;9.00;;;2.95;;